sensor_id;sensor_type;location;lat;lon;timestamp;temperature;humidity
6210;DHT22;3138;52.550;13.148;2024-02-15T00:00:40;8.70;99.90
6210;DHT22;3138;52.550;13.148;2024-02-15T00:03:08;8.70;99.90
6210;DHT22;3138;52.550;13.148;2024-02-15T00:05:38;8.70;99.90
6210;DHT22;3138;52.550;13.148;2024-02-15T00:08:06;8.70;99.90
6210;DHT22;3138;52.550;13.148;2024-02-15T00:10:34;8.70;99.90
6210;DHT22;3138;52.550;13.148;2024-02-15T00:13:01;8.70;99.90
6210;DHT22;3138;52.550;13.148;2024-02-15T00:15:28;8.80;99.90
6210;DHT22;3138;52.550;13.148;2024-02-15T00:17:55;8.80;99.90
6210;DHT22;3138;52.550;13.148;2024-02-15T00:20:22;8.80;99.90
6210;DHT22;3138;52.550;13.148;2024-02-15T00:22:49;8.80;99.90
6210;DHT22;3138;52.550;13.148;2024-02-15T00:25:16;8.70;99.90
6210;DHT22;3138;52.550;13.148;2024-02-15T00:27:44;8.80;99.90
6210;DHT22;3138;52.550;13.148;2024-02-15T00:30:12;8.80;99.90
6210;DHT22;3138;52.550;13.148;2024-02-15T00:32:39;8.80;99.90
6210;DHT22;3138;52.550;13.148;2024-02-15T00:35:06;8.80;99.90
6210;DHT22;3138;52.550;13.148;2024-02-15T00:37:34;8.80;99.90
6210;DHT22;3138;52.550;13.148;2024-02-15T00:40:01;8.80;99.90
6210;DHT22;3138;52.550;13.148;2024-02-15T00:42:29;8.80;99.90
6210;DHT22;3138;52.550;13.148;2024-02-15T00:44:59;8.80;99.90
6210;DHT22;3138;52.550;13.148;2024-02-15T00:47:25;8.80;99.90
6210;DHT22;3138;52.550;13.148;2024-02-15T00:49:54;8.80;99.90
6210;DHT22;3138;52.550;13.148;2024-02-15T00:52:20;8.80;99.90
6210;DHT22;3138;52.550;13.148;2024-02-15T00:54:47;8.80;99.90
6210;DHT22;3138;52.550;13.148;2024-02-15T00:57:14;8.80;99.90
6210;DHT22;3138;52.550;13.148;2024-02-15T00:59:41;8.80;99.90
6210;DHT22;3138;52.550;13.148;2024-02-15T01:02:09;8.80;99.90
6210;DHT22;3138;52.550;13.148;2024-02-15T01:04:36;8.80;99.90
6210;DHT22;3138;52.550;13.148;2024-02-15T01:07:03;8.80;99.90
6210;DHT22;3138;52.550;13.148;2024-02-15T01:09:30;8.80;99.90
6210;DHT22;3138;52.550;13.148;2024-02-15T01:11:57;8.80;99.90
6210;DHT22;3138;52.550;13.148;2024-02-15T01:14:24;8.80;99.90
6210;DHT22;3138;52.550;13.148;2024-02-15T01:16:55;8.80;99.90
6210;DHT22;3138;52.550;13.148;2024-02-15T01:19:23;8.80;99.90
6210;DHT22;3138;52.550;13.148;2024-02-15T01:21:50;8.80;99.90
6210;DHT22;3138;52.550;13.148;2024-02-15T01:24:17;8.80;99.90
6210;DHT22;3138;52.550;13.148;2024-02-15T01:26:43;8.80;99.90
6210;DHT22;3138;52.550;13.148;2024-02-15T01:29:13;8.80;99.90
6210;DHT22;3138;52.550;13.148;2024-02-15T01:31:40;8.80;99.90
6210;DHT22;3138;52.550;13.148;2024-02-15T01:34:06;8.80;99.90
6210;DHT22;3138;52.550;13.148;2024-02-15T01:36:35;8.80;99.90
6210;DHT22;3138;52.550;13.148;2024-02-15T01:39:02;8.80;99.90
6210;DHT22;3138;52.550;13.148;2024-02-15T01:41:29;8.80;99.90
6210;DHT22;3138;52.550;13.148;2024-02-15T01:43:57;8.80;99.90
6210;DHT22;3138;52.550;13.148;2024-02-15T01:46:24;8.80;99.90
6210;DHT22;3138;52.550;13.148;2024-02-15T01:48:51;8.80;99.90
6210;DHT22;3138;52.550;13.148;2024-02-15T01:51:18;8.80;99.90
6210;DHT22;3138;52.550;13.148;2024-02-15T01:53:46;8.80;99.90
6210;DHT22;3138;52.550;13.148;2024-02-15T01:56:14;8.80;99.90
6210;DHT22;3138;52.550;13.148;2024-02-15T01:58:43;8.80;99.90
6210;DHT22;3138;52.550;13.148;2024-02-15T02:01:11;8.80;99.90
6210;DHT22;3138;52.550;13.148;2024-02-15T02:03:39;8.80;99.90
6210;DHT22;3138;52.550;13.148;2024-02-15T02:06:06;8.80;99.90
6210;DHT22;3138;52.550;13.148;2024-02-15T02:08:33;8.80;99.90
6210;DHT22;3138;52.550;13.148;2024-02-15T02:11:01;8.80;99.90
6210;DHT22;3138;52.550;13.148;2024-02-15T02:13:29;8.80;99.90
6210;DHT22;3138;52.550;13.148;2024-02-15T02:15:56;8.80;99.90
6210;DHT22;3138;52.550;13.148;2024-02-15T02:18:24;8.80;99.90
6210;DHT22;3138;52.550;13.148;2024-02-15T02:20:51;8.80;99.90
6210;DHT22;3138;52.550;13.148;2024-02-15T02:23:21;8.80;99.90
6210;DHT22;3138;52.550;13.148;2024-02-15T02:25:54;8.80;99.90
6210;DHT22;3138;52.550;13.148;2024-02-15T02:28:21;8.80;99.90
6210;DHT22;3138;52.550;13.148;2024-02-15T02:30:48;8.80;99.90
6210;DHT22;3138;52.550;13.148;2024-02-15T02:33:15;8.90;99.90
6210;DHT22;3138;52.550;13.148;2024-02-15T02:35:44;8.90;99.90
6210;DHT22;3138;52.550;13.148;2024-02-15T02:38:12;8.80;99.90
6210;DHT22;3138;52.550;13.148;2024-02-15T02:40:40;8.80;99.90
6210;DHT22;3138;52.550;13.148;2024-02-15T02:43:08;8.90;99.90
6210;DHT22;3138;52.550;13.148;2024-02-15T02:45:35;8.90;99.90
6210;DHT22;3138;52.550;13.148;2024-02-15T02:48:02;8.90;99.90
6210;DHT22;3138;52.550;13.148;2024-02-15T02:50:29;8.80;99.90
6210;DHT22;3138;52.550;13.148;2024-02-15T02:52:55;8.90;99.90
6210;DHT22;3138;52.550;13.148;2024-02-15T02:55:22;8.90;99.90
6210;DHT22;3138;52.550;13.148;2024-02-15T02:57:49;8.90;99.90
6210;DHT22;3138;52.550;13.148;2024-02-15T03:00:21;8.90;99.90
6210;DHT22;3138;52.550;13.148;2024-02-15T03:02:48;8.90;99.90
6210;DHT22;3138;52.550;13.148;2024-02-15T03:05:15;8.90;99.90
6210;DHT22;3138;52.550;13.148;2024-02-15T03:07:42;8.90;99.90
6210;DHT22;3138;52.550;13.148;2024-02-15T03:10:10;8.90;99.90
6210;DHT22;3138;52.550;13.148;2024-02-15T03:12:39;8.90;99.90
6210;DHT22;3138;52.550;13.148;2024-02-15T03:15:11;8.90;99.90
6210;DHT22;3138;52.550;13.148;2024-02-15T03:17:40;8.90;99.90
6210;DHT22;3138;52.550;13.148;2024-02-15T03:20:07;8.90;99.90
6210;DHT22;3138;52.550;13.148;2024-02-15T03:22:37;8.90;99.90
6210;DHT22;3138;52.550;13.148;2024-02-15T03:25:05;8.90;99.90
6210;DHT22;3138;52.550;13.148;2024-02-15T03:27:33;8.90;99.90
6210;DHT22;3138;52.550;13.148;2024-02-15T03:30:01;8.90;99.90
6210;DHT22;3138;52.550;13.148;2024-02-15T03:32:29;9.00;99.90
6210;DHT22;3138;52.550;13.148;2024-02-15T03:34:57;9.00;99.90
6210;DHT22;3138;52.550;13.148;2024-02-15T03:37:26;8.90;99.90
6210;DHT22;3138;52.550;13.148;2024-02-15T03:39:53;8.90;99.90
6210;DHT22;3138;52.550;13.148;2024-02-15T03:42:20;9.00;99.90
6210;DHT22;3138;52.550;13.148;2024-02-15T03:44:47;8.90;99.90
6210;DHT22;3138;52.550;13.148;2024-02-15T03:47:14;8.90;99.90
6210;DHT22;3138;52.550;13.148;2024-02-15T03:49:41;8.90;99.90
6210;DHT22;3138;52.550;13.148;2024-02-15T03:52:09;9.00;99.90
6210;DHT22;3138;52.550;13.148;2024-02-15T03:54:37;9.00;99.90
6210;DHT22;3138;52.550;13.148;2024-02-15T03:57:04;8.90;99.90
6210;DHT22;3138;52.550;13.148;2024-02-15T03:59:32;8.90;99.90
6210;DHT22;3138;52.550;13.148;2024-02-15T04:02:00;9.00;99.90
6210;DHT22;3138;52.550;13.148;2024-02-15T04:04:28;8.90;99.90
6210;DHT22;3138;52.550;13.148;2024-02-15T04:06:55;9.00;99.90
6210;DHT22;3138;52.550;13.148;2024-02-15T04:09:25;8.90;99.90
6210;DHT22;3138;52.550;13.148;2024-02-15T04:11:51;9.00;99.90
6210;DHT22;3138;52.550;13.148;2024-02-15T04:14:18;9.00;99.90
6210;DHT22;3138;52.550;13.148;2024-02-15T04:16:45;9.00;99.90
6210;DHT22;3138;52.550;13.148;2024-02-15T04:19:12;8.90;99.90
6210;DHT22;3138;52.550;13.148;2024-02-15T04:21:39;9.00;99.90
6210;DHT22;3138;52.550;13.148;2024-02-15T04:24:09;9.00;99.90
6210;DHT22;3138;52.550;13.148;2024-02-15T04:26:37;9.00;99.90
6210;DHT22;3138;52.550;13.148;2024-02-15T04:29:04;9.00;99.90
6210;DHT22;3138;52.550;13.148;2024-02-15T04:31:35;9.00;99.90
6210;DHT22;3138;52.550;13.148;2024-02-15T04:34:04;9.00;99.90
6210;DHT22;3138;52.550;13.148;2024-02-15T04:36:31;9.00;99.90
6210;DHT22;3138;52.550;13.148;2024-02-15T04:39:00;9.10;99.90
6210;DHT22;3138;52.550;13.148;2024-02-15T04:41:28;9.00;99.90
6210;DHT22;3138;52.550;13.148;2024-02-15T04:43:56;9.00;99.90
6210;DHT22;3138;52.550;13.148;2024-02-15T04:46:23;9.00;99.90
6210;DHT22;3138;52.550;13.148;2024-02-15T04:48:50;9.10;99.90
6210;DHT22;3138;52.550;13.148;2024-02-15T04:51:17;9.10;99.90
6210;DHT22;3138;52.550;13.148;2024-02-15T04:53:45;9.10;99.90
6210;DHT22;3138;52.550;13.148;2024-02-15T04:56:13;9.10;99.90
6210;DHT22;3138;52.550;13.148;2024-02-15T04:58:42;9.10;99.90
6210;DHT22;3138;52.550;13.148;2024-02-15T05:01:14;9.10;99.90
6210;DHT22;3138;52.550;13.148;2024-02-15T05:03:41;9.10;99.90
6210;DHT22;3138;52.550;13.148;2024-02-15T05:06:08;9.10;99.90
6210;DHT22;3138;52.550;13.148;2024-02-15T05:08:35;9.10;99.90
6210;DHT22;3138;52.550;13.148;2024-02-15T05:11:03;9.10;99.90
6210;DHT22;3138;52.550;13.148;2024-02-15T05:13:32;9.10;99.90
6210;DHT22;3138;52.550;13.148;2024-02-15T05:15:59;9.10;99.90
6210;DHT22;3138;52.550;13.148;2024-02-15T05:18:27;9.10;99.90
6210;DHT22;3138;52.550;13.148;2024-02-15T05:20:56;9.10;99.90
6210;DHT22;3138;52.550;13.148;2024-02-15T05:23:22;9.10;99.90
6210;DHT22;3138;52.550;13.148;2024-02-15T05:25:49;9.10;99.90
6210;DHT22;3138;52.550;13.148;2024-02-15T05:28:16;9.10;99.90
6210;DHT22;3138;52.550;13.148;2024-02-15T05:30:43;9.10;99.90
6210;DHT22;3138;52.550;13.148;2024-02-15T05:33:10;9.10;99.90
6210;DHT22;3138;52.550;13.148;2024-02-15T05:35:38;9.10;99.90
6210;DHT22;3138;52.550;13.148;2024-02-15T05:38:07;9.10;99.90
6210;DHT22;3138;52.550;13.148;2024-02-15T05:40:33;9.10;99.90
6210;DHT22;3138;52.550;13.148;2024-02-15T05:43:00;9.10;99.90
6210;DHT22;3138;52.550;13.148;2024-02-15T05:45:29;9.20;99.90
6210;DHT22;3138;52.550;13.148;2024-02-15T05:47:58;9.20;99.90
6210;DHT22;3138;52.550;13.148;2024-02-15T05:50:25;9.20;99.90
6210;DHT22;3138;52.550;13.148;2024-02-15T05:52:56;9.10;99.90
6210;DHT22;3138;52.550;13.148;2024-02-15T05:55:24;9.20;99.90
6210;DHT22;3138;52.550;13.148;2024-02-15T05:57:52;9.20;99.90
6210;DHT22;3138;52.550;13.148;2024-02-15T06:00:19;9.20;99.90
6210;DHT22;3138;52.550;13.148;2024-02-15T06:02:46;9.20;99.90
6210;DHT22;3138;52.550;13.148;2024-02-15T06:05:14;9.20;99.90
6210;DHT22;3138;52.550;13.148;2024-02-15T06:07:43;9.20;99.90
6210;DHT22;3138;52.550;13.148;2024-02-15T06:10:13;9.20;99.90
6210;DHT22;3138;52.550;13.148;2024-02-15T06:12:40;9.20;99.90
6210;DHT22;3138;52.550;13.148;2024-02-15T06:15:08;9.30;99.90
6210;DHT22;3138;52.550;13.148;2024-02-15T06:17:41;9.20;99.90
6210;DHT22;3138;52.550;13.148;2024-02-15T06:20:11;9.30;99.90
6210;DHT22;3138;52.550;13.148;2024-02-15T06:22:40;9.20;99.90
6210;DHT22;3138;52.550;13.148;2024-02-15T06:25:07;9.30;99.90
6210;DHT22;3138;52.550;13.148;2024-02-15T06:27:36;9.30;99.90
6210;DHT22;3138;52.550;13.148;2024-02-15T06:30:07;9.30;99.90
6210;DHT22;3138;52.550;13.148;2024-02-15T06:32:51;9.30;99.90
6210;DHT22;3138;52.550;13.148;2024-02-15T06:35:32;9.30;99.90
6210;DHT22;3138;52.550;13.148;2024-02-15T06:38:15;9.30;99.90
6210;DHT22;3138;52.550;13.148;2024-02-15T06:41:00;9.30;99.90
6210;DHT22;3138;52.550;13.148;2024-02-15T06:43:28;9.30;99.90
6210;DHT22;3138;52.550;13.148;2024-02-15T06:45:55;9.30;99.90
6210;DHT22;3138;52.550;13.148;2024-02-15T06:48:22;9.40;99.90
6210;DHT22;3138;52.550;13.148;2024-02-15T06:50:49;9.40;99.90
6210;DHT22;3138;52.550;13.148;2024-02-15T06:53:15;9.40;99.90
6210;DHT22;3138;52.550;13.148;2024-02-15T06:55:43;9.40;99.90
6210;DHT22;3138;52.550;13.148;2024-02-15T06:58:10;9.40;99.90
6210;DHT22;3138;52.550;13.148;2024-02-15T07:00:39;9.40;99.90
6210;DHT22;3138;52.550;13.148;2024-02-15T07:03:08;9.50;99.90
6210;DHT22;3138;52.550;13.148;2024-02-15T07:05:36;9.50;99.90
6210;DHT22;3138;52.550;13.148;2024-02-15T07:08:07;9.50;99.90
6210;DHT22;3138;52.550;13.148;2024-02-15T07:10:37;9.60;99.90
6210;DHT22;3138;52.550;13.148;2024-02-15T07:13:04;9.70;99.90
6210;DHT22;3138;52.550;13.148;2024-02-15T07:15:31;9.60;99.90
6210;DHT22;3138;52.550;13.148;2024-02-15T07:18:00;9.70;99.90
6210;DHT22;3138;52.550;13.148;2024-02-15T07:20:26;9.70;99.90
6210;DHT22;3138;52.550;13.148;2024-02-15T07:22:53;9.70;99.90
6210;DHT22;3138;52.550;13.148;2024-02-15T07:25:20;9.80;99.90
6210;DHT22;3138;52.550;13.148;2024-02-15T07:27:47;9.80;99.90
6210;DHT22;3138;52.550;13.148;2024-02-15T07:30:14;9.80;99.90
6210;DHT22;3138;52.550;13.148;2024-02-15T07:32:41;9.90;99.90
6210;DHT22;3138;52.550;13.148;2024-02-15T07:35:09;9.90;99.90
6210;DHT22;3138;52.550;13.148;2024-02-15T07:37:36;9.90;99.90
6210;DHT22;3138;52.550;13.148;2024-02-15T07:40:05;9.90;99.90
6210;DHT22;3138;52.550;13.148;2024-02-15T07:42:34;10.00;99.90
6210;DHT22;3138;52.550;13.148;2024-02-15T07:45:01;10.00;99.90
6210;DHT22;3138;52.550;13.148;2024-02-15T07:47:32;10.10;99.90
6210;DHT22;3138;52.550;13.148;2024-02-15T07:49:59;10.10;99.90
6210;DHT22;3138;52.550;13.148;2024-02-15T07:52:28;10.20;99.90
6210;DHT22;3138;52.550;13.148;2024-02-15T07:54:55;10.20;99.90
6210;DHT22;3138;52.550;13.148;2024-02-15T07:57:24;10.20;99.90
6210;DHT22;3138;52.550;13.148;2024-02-15T07:59:52;10.20;99.90
6210;DHT22;3138;52.550;13.148;2024-02-15T08:02:19;10.30;99.90
6210;DHT22;3138;52.550;13.148;2024-02-15T08:04:47;10.40;99.90
6210;DHT22;3138;52.550;13.148;2024-02-15T08:07:15;10.30;99.90
6210;DHT22;3138;52.550;13.148;2024-02-15T08:09:44;10.40;99.90
6210;DHT22;3138;52.550;13.148;2024-02-15T08:12:10;10.40;99.90
6210;DHT22;3138;52.550;13.148;2024-02-15T08:14:37;10.40;99.90
6210;DHT22;3138;52.550;13.148;2024-02-15T08:17:05;10.50;99.90
6210;DHT22;3138;52.550;13.148;2024-02-15T08:19:33;10.50;99.90
6210;DHT22;3138;52.550;13.148;2024-02-15T08:22:06;10.40;99.90
6210;DHT22;3138;52.550;13.148;2024-02-15T08:24:33;10.40;99.90
6210;DHT22;3138;52.550;13.148;2024-02-15T08:27:01;10.50;99.90
6210;DHT22;3138;52.550;13.148;2024-02-15T08:29:30;10.40;99.90
6210;DHT22;3138;52.550;13.148;2024-02-15T08:31:59;10.50;99.90
6210;DHT22;3138;52.550;13.148;2024-02-15T08:34:26;10.50;99.90
6210;DHT22;3138;52.550;13.148;2024-02-15T08:36:53;10.50;99.90
6210;DHT22;3138;52.550;13.148;2024-02-15T08:39:20;10.50;99.90
6210;DHT22;3138;52.550;13.148;2024-02-15T08:41:50;10.60;99.90
6210;DHT22;3138;52.550;13.148;2024-02-15T08:44:20;10.70;99.90
6210;DHT22;3138;52.550;13.148;2024-02-15T08:46:47;10.70;99.90
6210;DHT22;3138;52.550;13.148;2024-02-15T08:49:14;10.80;99.90
6210;DHT22;3138;52.550;13.148;2024-02-15T08:51:41;10.90;99.90
6210;DHT22;3138;52.550;13.148;2024-02-15T08:54:08;11.00;99.90
6210;DHT22;3138;52.550;13.148;2024-02-15T08:56:35;11.00;99.90
6210;DHT22;3138;52.550;13.148;2024-02-15T08:59:02;11.10;99.90
6210;DHT22;3138;52.550;13.148;2024-02-15T09:01:30;11.20;99.90
6210;DHT22;3138;52.550;13.148;2024-02-15T09:03:58;11.30;99.90
6210;DHT22;3138;52.550;13.148;2024-02-15T09:06:25;11.40;99.90
6210;DHT22;3138;52.550;13.148;2024-02-15T09:08:52;11.40;99.90
6210;DHT22;3138;52.550;13.148;2024-02-15T09:11:19;11.30;99.90
6210;DHT22;3138;52.550;13.148;2024-02-15T09:13:45;11.30;99.90
6210;DHT22;3138;52.550;13.148;2024-02-15T09:16:15;11.30;99.90
6210;DHT22;3138;52.550;13.148;2024-02-15T09:18:43;11.30;99.90
6210;DHT22;3138;52.550;13.148;2024-02-15T09:21:10;11.40;99.90
6210;DHT22;3138;52.550;13.148;2024-02-15T09:23:37;11.50;99.90
6210;DHT22;3138;52.550;13.148;2024-02-15T09:26:05;11.50;99.90
6210;DHT22;3138;52.550;13.148;2024-02-15T09:28:35;11.50;99.90
6210;DHT22;3138;52.550;13.148;2024-02-15T09:31:02;11.50;99.90
6210;DHT22;3138;52.550;13.148;2024-02-15T09:33:29;11.60;99.90
6210;DHT22;3138;52.550;13.148;2024-02-15T09:35:57;11.70;99.90
6210;DHT22;3138;52.550;13.148;2024-02-15T09:38:24;11.70;99.90
6210;DHT22;3138;52.550;13.148;2024-02-15T09:40:51;11.70;99.90
6210;DHT22;3138;52.550;13.148;2024-02-15T09:43:18;11.80;99.90
6210;DHT22;3138;52.550;13.148;2024-02-15T09:45:44;11.90;99.90
6210;DHT22;3138;52.550;13.148;2024-02-15T09:48:15;12.10;99.90
6210;DHT22;3138;52.550;13.148;2024-02-15T09:50:45;12.20;99.90
6210;DHT22;3138;52.550;13.148;2024-02-15T09:53:13;12.30;99.90
6210;DHT22;3138;52.550;13.148;2024-02-15T09:55:42;12.40;99.90
6210;DHT22;3138;52.550;13.148;2024-02-15T09:58:09;12.30;99.90
6210;DHT22;3138;52.550;13.148;2024-02-15T10:00:38;12.30;99.90
6210;DHT22;3138;52.550;13.148;2024-02-15T10:03:06;12.30;99.90
6210;DHT22;3138;52.550;13.148;2024-02-15T10:05:33;12.30;99.90
6210;DHT22;3138;52.550;13.148;2024-02-15T10:08:00;12.30;99.90
6210;DHT22;3138;52.550;13.148;2024-02-15T10:10:28;12.40;99.90
6210;DHT22;3138;52.550;13.148;2024-02-15T10:12:55;12.40;99.90
6210;DHT22;3138;52.550;13.148;2024-02-15T10:15:31;12.60;99.90
6210;DHT22;3138;52.550;13.148;2024-02-15T10:17:59;12.80;99.90
6210;DHT22;3138;52.550;13.148;2024-02-15T10:20:26;12.90;99.90
6210;DHT22;3138;52.550;13.148;2024-02-15T10:22:58;13.00;99.90
6210;DHT22;3138;52.550;13.148;2024-02-15T10:25:37;13.00;99.90
6210;DHT22;3138;52.550;13.148;2024-02-15T10:28:04;12.90;99.90
6210;DHT22;3138;52.550;13.148;2024-02-15T10:30:34;12.90;99.90
6210;DHT22;3138;52.550;13.148;2024-02-15T10:33:01;12.90;99.90
6210;DHT22;3138;52.550;13.148;2024-02-15T10:35:28;13.00;99.90
6210;DHT22;3138;52.550;13.148;2024-02-15T10:38:05;13.10;99.90
6210;DHT22;3138;52.550;13.148;2024-02-15T10:40:33;13.10;99.90
6210;DHT22;3138;52.550;13.148;2024-02-15T10:43:03;13.00;99.90
6210;DHT22;3138;52.550;13.148;2024-02-15T10:45:31;13.00;99.90
6210;DHT22;3138;52.550;13.148;2024-02-15T10:47:58;12.90;99.90
6210;DHT22;3138;52.550;13.148;2024-02-15T10:50:24;12.80;99.90
6210;DHT22;3138;52.550;13.148;2024-02-15T10:52:56;12.90;99.90
6210;DHT22;3138;52.550;13.148;2024-02-15T10:55:35;12.90;99.90
6210;DHT22;3138;52.550;13.148;2024-02-15T10:58:07;12.90;99.90
6210;DHT22;3138;52.550;13.148;2024-02-15T11:00:35;13.00;99.90
6210;DHT22;3138;52.550;13.148;2024-02-15T11:03:07;13.10;99.90
6210;DHT22;3138;52.550;13.148;2024-02-15T11:05:35;13.20;99.90
6210;DHT22;3138;52.550;13.148;2024-02-15T11:08:05;13.20;99.90
6210;DHT22;3138;52.550;13.148;2024-02-15T11:10:32;13.40;99.90
6210;DHT22;3138;52.550;13.148;2024-02-15T11:13:00;13.40;99.90
6210;DHT22;3138;52.550;13.148;2024-02-15T11:15:43;13.40;99.90
6210;DHT22;3138;52.550;13.148;2024-02-15T11:18:45;13.50;99.90
6210;DHT22;3138;52.550;13.148;2024-02-15T11:21:15;13.40;99.90
6210;DHT22;3138;52.550;13.148;2024-02-15T11:23:42;13.40;99.90
6210;DHT22;3138;52.550;13.148;2024-02-15T11:29:08;13.30;99.90
6210;DHT22;3138;52.550;13.148;2024-02-15T11:31:53;13.30;99.90
6210;DHT22;3138;52.550;13.148;2024-02-15T11:34:44;13.20;99.90
6210;DHT22;3138;52.550;13.148;2024-02-15T11:40:19;13.10;99.90
6210;DHT22;3138;52.550;13.148;2024-02-15T11:42:48;13.00;99.90
6210;DHT22;3138;52.550;13.148;2024-02-15T11:45:16;12.90;99.90
6210;DHT22;3138;52.550;13.148;2024-02-15T11:47:48;12.90;99.90
6210;DHT22;3138;52.550;13.148;2024-02-15T11:50:18;12.80;99.90
6210;DHT22;3138;52.550;13.148;2024-02-15T11:52:46;12.80;99.90
6210;DHT22;3138;52.550;13.148;2024-02-15T11:55:18;12.80;99.90
6210;DHT22;3138;52.550;13.148;2024-02-15T11:57:54;12.80;99.90
6210;DHT22;3138;52.550;13.148;2024-02-15T12:00:28;12.80;99.90
6210;DHT22;3138;52.550;13.148;2024-02-15T12:03:14;12.80;99.90
6210;DHT22;3138;52.550;13.148;2024-02-15T12:06:00;12.70;99.90
6210;DHT22;3138;52.550;13.148;2024-02-15T12:08:45;12.70;99.90
6210;DHT22;3138;52.550;13.148;2024-02-15T12:11:29;12.80;99.90
6210;DHT22;3138;52.550;13.148;2024-02-15T12:14:23;12.80;99.90
6210;DHT22;3138;52.550;13.148;2024-02-15T12:17:08;12.90;99.90
6210;DHT22;3138;52.550;13.148;2024-02-15T12:19:54;12.90;99.90
6210;DHT22;3138;52.550;13.148;2024-02-15T12:22:26;13.00;99.90
6210;DHT22;3138;52.550;13.148;2024-02-15T12:24:54;12.90;99.90
6210;DHT22;3138;52.550;13.148;2024-02-15T12:27:22;13.00;99.90
6210;DHT22;3138;52.550;13.148;2024-02-15T12:29:53;13.10;99.90
6210;DHT22;3138;52.550;13.148;2024-02-15T12:32:21;13.10;99.90
6210;DHT22;3138;52.550;13.148;2024-02-15T12:34:48;13.30;99.90
6210;DHT22;3138;52.550;13.148;2024-02-15T12:37:18;13.30;99.90
6210;DHT22;3138;52.550;13.148;2024-02-15T12:39:47;13.40;99.90
6210;DHT22;3138;52.550;13.148;2024-02-15T12:42:15;13.40;99.90
6210;DHT22;3138;52.550;13.148;2024-02-15T12:44:44;13.60;99.90
6210;DHT22;3138;52.550;13.148;2024-02-15T12:47:20;13.70;99.90
6210;DHT22;3138;52.550;13.148;2024-02-15T12:49:48;13.60;99.90
6210;DHT22;3138;52.550;13.148;2024-02-15T12:52:36;13.50;99.90
6210;DHT22;3138;52.550;13.148;2024-02-15T12:55:09;13.50;99.90
6210;DHT22;3138;52.550;13.148;2024-02-15T12:57:36;13.50;99.90
6210;DHT22;3138;52.550;13.148;2024-02-15T13:00:06;13.60;99.90
6210;DHT22;3138;52.550;13.148;2024-02-15T13:02:36;13.70;99.90
6210;DHT22;3138;52.550;13.148;2024-02-15T13:05:04;13.80;99.90
6210;DHT22;3138;52.550;13.148;2024-02-15T13:07:33;13.70;99.90
6210;DHT22;3138;52.550;13.148;2024-02-15T13:10:00;13.80;99.90
6210;DHT22;3138;52.550;13.148;2024-02-15T13:12:28;13.80;99.90
6210;DHT22;3138;52.550;13.148;2024-02-15T13:14:55;13.90;99.90
6210;DHT22;3138;52.550;13.148;2024-02-15T13:17:22;13.80;99.90
6210;DHT22;3138;52.550;13.148;2024-02-15T13:19:49;13.80;99.90
6210;DHT22;3138;52.550;13.148;2024-02-15T13:22:16;13.70;99.90
6210;DHT22;3138;52.550;13.148;2024-02-15T13:24:44;13.80;99.90
6210;DHT22;3138;52.550;13.148;2024-02-15T13:27:11;13.80;99.90
6210;DHT22;3138;52.550;13.148;2024-02-15T13:29:39;13.80;99.90
6210;DHT22;3138;52.550;13.148;2024-02-15T13:32:07;13.70;99.90
6210;DHT22;3138;52.550;13.148;2024-02-15T13:34:37;13.70;99.90
6210;DHT22;3138;52.550;13.148;2024-02-15T13:37:05;13.70;99.90
6210;DHT22;3138;52.550;13.148;2024-02-15T13:39:32;13.70;99.90
6210;DHT22;3138;52.550;13.148;2024-02-15T13:42:00;13.70;99.90
6210;DHT22;3138;52.550;13.148;2024-02-15T13:44:26;13.70;99.90
6210;DHT22;3138;52.550;13.148;2024-02-15T13:46:57;13.70;99.90
6210;DHT22;3138;52.550;13.148;2024-02-15T13:49:24;13.70;99.90
6210;DHT22;3138;52.550;13.148;2024-02-15T13:51:51;13.70;99.90
6210;DHT22;3138;52.550;13.148;2024-02-15T13:54:18;13.80;99.90
6210;DHT22;3138;52.550;13.148;2024-02-15T13:56:46;13.90;99.90
6210;DHT22;3138;52.550;13.148;2024-02-15T13:59:13;13.90;99.90
6210;DHT22;3138;52.550;13.148;2024-02-15T14:01:40;13.80;99.90
6210;DHT22;3138;52.550;13.148;2024-02-15T14:04:12;13.70;99.90
6210;DHT22;3138;52.550;13.148;2024-02-15T14:06:39;13.70;99.90
6210;DHT22;3138;52.550;13.148;2024-02-15T14:09:06;13.60;99.90
6210;DHT22;3138;52.550;13.148;2024-02-15T14:11:33;13.60;99.90
6210;DHT22;3138;52.550;13.148;2024-02-15T14:14:00;13.60;99.90
6210;DHT22;3138;52.550;13.148;2024-02-15T14:16:27;13.50;99.90
6210;DHT22;3138;52.550;13.148;2024-02-15T14:18:54;13.50;99.90
6210;DHT22;3138;52.550;13.148;2024-02-15T14:21:23;13.40;99.90
6210;DHT22;3138;52.550;13.148;2024-02-15T14:23:51;13.40;99.90
6210;DHT22;3138;52.550;13.148;2024-02-15T14:26:17;13.30;99.90
6210;DHT22;3138;52.550;13.148;2024-02-15T14:28:44;13.30;99.90
6210;DHT22;3138;52.550;13.148;2024-02-15T14:31:11;13.30;99.90
6210;DHT22;3138;52.550;13.148;2024-02-15T14:33:56;13.30;99.90
6210;DHT22;3138;52.550;13.148;2024-02-15T14:36:24;13.30;99.90
6210;DHT22;3138;52.550;13.148;2024-02-15T14:38:52;13.40;99.90
6210;DHT22;3138;52.550;13.148;2024-02-15T14:41:20;13.40;99.90
6210;DHT22;3138;52.550;13.148;2024-02-15T14:43:48;13.30;99.90
6210;DHT22;3138;52.550;13.148;2024-02-15T14:46:16;13.30;99.90
6210;DHT22;3138;52.550;13.148;2024-02-15T14:48:43;13.30;99.90
6210;DHT22;3138;52.550;13.148;2024-02-15T14:51:15;13.30;99.90
6210;DHT22;3138;52.550;13.148;2024-02-15T14:53:44;13.30;99.90
6210;DHT22;3138;52.550;13.148;2024-02-15T14:56:11;13.30;99.90
6210;DHT22;3138;52.550;13.148;2024-02-15T14:58:38;13.20;99.90
6210;DHT22;3138;52.550;13.148;2024-02-15T15:01:06;13.10;99.90
6210;DHT22;3138;52.550;13.148;2024-02-15T15:03:33;13.10;99.90
6210;DHT22;3138;52.550;13.148;2024-02-15T15:06:03;13.10;99.90
6210;DHT22;3138;52.550;13.148;2024-02-15T15:08:49;13.10;99.90
6210;DHT22;3138;52.550;13.148;2024-02-15T15:11:33;13.00;99.90
6210;DHT22;3138;52.550;13.148;2024-02-15T15:14:17;13.00;99.90
6210;DHT22;3138;52.550;13.148;2024-02-15T15:16:45;12.90;99.90
6210;DHT22;3138;52.550;13.148;2024-02-15T15:19:11;12.90;99.90
6210;DHT22;3138;52.550;13.148;2024-02-15T15:21:38;12.90;99.90
6210;DHT22;3138;52.550;13.148;2024-02-15T15:24:07;12.80;99.90
6210;DHT22;3138;52.550;13.148;2024-02-15T15:26:35;12.80;99.90
6210;DHT22;3138;52.550;13.148;2024-02-15T15:29:02;12.80;99.90
6210;DHT22;3138;52.550;13.148;2024-02-15T15:31:30;12.70;99.90
6210;DHT22;3138;52.550;13.148;2024-02-15T15:33:58;12.70;99.90
6210;DHT22;3138;52.550;13.148;2024-02-15T15:36:25;12.60;99.90
6210;DHT22;3138;52.550;13.148;2024-02-15T15:38:52;12.70;99.90
6210;DHT22;3138;52.550;13.148;2024-02-15T15:41:20;12.70;99.90
6210;DHT22;3138;52.550;13.148;2024-02-15T15:43:48;12.60;99.90
6210;DHT22;3138;52.550;13.148;2024-02-15T15:46:15;12.60;99.90
6210;DHT22;3138;52.550;13.148;2024-02-15T15:48:43;12.60;99.90
6210;DHT22;3138;52.550;13.148;2024-02-15T15:51:10;12.50;99.90
6210;DHT22;3138;52.550;13.148;2024-02-15T15:53:38;12.50;99.90
6210;DHT22;3138;52.550;13.148;2024-02-15T15:56:06;12.40;99.90
6210;DHT22;3138;52.550;13.148;2024-02-15T15:58:34;12.40;99.90
6210;DHT22;3138;52.550;13.148;2024-02-15T16:01:01;12.40;99.90
6210;DHT22;3138;52.550;13.148;2024-02-15T16:03:29;12.30;99.90
6210;DHT22;3138;52.550;13.148;2024-02-15T16:05:56;12.30;99.90
6210;DHT22;3138;52.550;13.148;2024-02-15T16:08:23;12.30;99.90